Flight Track Log - Related Links

Times and Time Zones

All times are in EDT time to prevent confusion due to time zone crossing. See the SWA4106 flight status page for this flight to view local times or setup timezone preferences in your user account.

Time Position Orientation Groundspeed Altitude Reporting Facility
EDT Latitude Longitude Course Direction KTS MPH feet Rate Location/Type
Sat 10:04:48 PM 28.4000 -81.3000 221° Southwest 168 193 800  Level Orlando TRACON
Sat 10:05:18 PM 28.3833 -81.3167 221° Southwest 185 213 1,600 1,933 Climbing Orlando TRACON
Sat 10:06:18 PM 28.3333 -81.3500 210° Southwest 232 267 3,700 2,800 Climbing Orlando TRACON
Sat 10:07:18 PM 28.2833 -81.4167 230° Southwest 275 316 7,200 2,412 Climbing Orlando TRACON
Sat 10:09:32 PM 28.4594 -81.4972 338° Northwest 286 329 11,500 2,196 Climbing Jacksonville Center
Sat 10:10:32 PM 28.5703 -81.5169 351° North 355 409 14,300 2,600 Climbing Jacksonville Center
Sat 10:11:32 PM 28.6853 -81.5367 351° North 393 452 16,700 2,350 Climbing Jacksonville Center
Sat 10:12:32 PM 28.8086 -81.5586 351° North 423 487 19,000 2,200 Climbing Jacksonville Center
Sat 10:13:32 PM 28.9322 -81.5831 350° North 439 505 21,100 2,050 Climbing Jacksonville Center
Sat 10:14:32 PM 29.0617 -81.6050 352° North 455 524 23,100 1,900 Climbing Jacksonville Center
Sat 10:15:32 PM 29.1894 -81.6344 349° North 460 529 24,900 1,950 Climbing Jacksonville Center
Sat 10:16:32 PM 29.3192 -81.6636 349° North 465 535 27,000 2,000 Climbing Jacksonville Center
Sat 10:17:32 PM 29.4447 -81.6931 348° North 470 541 28,900 1,950 Climbing Jacksonville Center
Sat 10:18:32 PM 29.5703 -81.7344 344° North 464 534 30,900 2,100 Climbing Jacksonville Center
Sat 10:19:32 PM 29.6936 -81.7736 345° North 464 534 33,100 2,000 Climbing Jacksonville Center
Sat 10:20:32 PM 29.8153 -81.8131 344° North 453 521 34,900 1,700 Climbing Jacksonville Center
Sat 10:21:32 PM 29.9325 -81.8500 345° North 447 514 36,500 1,050 Climbing Jacksonville Center
Sat 10:22:32 PM 30.0494 -81.8822 347° North 430 495 37,000 250 Climbing Jacksonville Center
Sat 10:23:32 PM 30.1625 -81.9197 344° North 430 495 37,000  Level Jacksonville Center
Sat 10:24:32 PM 30.2778 -81.9522 346° North 425 489 37,000  Level Jacksonville Center
Sat 10:25:32 PM 30.3947 -81.9822 348° North 425 489 37,000  Level Jacksonville Center
Sat 10:26:32 PM 30.5119 -82.0100 348° North 425 489 37,000  Level Jacksonville Center
Sat 10:27:32 PM 30.6167 -82.0428 345° North 425 489 37,000  Level Jacksonville Center
Sat 10:28:32 PM 30.7317 -82.0708 348° North 425 489 37,000  Level Jacksonville Center
Sat 10:29:32 PM 30.8425 -82.1014 347° North 419 482 37,000  Level Jacksonville Center
Sat 10:30:32 PM 30.9575 -82.1342 346° North 419 482 37,000  Level Jacksonville Center
Sat 10:31:32 PM 31.0725 -82.1600 349° North 413 475 37,000  Level Jacksonville Center
Sat 10:32:32 PM 31.1853 -82.1908 347° North 413 475 37,000  Level Jacksonville Center
Sat 10:33:32 PM 31.3003 -82.2214 347° North 413 475 37,000  Level Jacksonville Center
Sat 10:35:57 PM 31.5778 -82.2911 348° North 424 488 37,000  Level Atlanta Center
Sat 10:36:57 PM 31.6969 -82.3206 348° North 424 488 37,000  Level Atlanta Center
Sat 10:37:57 PM 31.8122 -82.3525 347° North 424 488 37,000  Level Atlanta Center
Sat 10:38:57 PM 31.9297 -82.3847 347° North 424 488 37,000  Level Atlanta Center
Sat 10:39:58 PM 32.0469 -82.4142 348° North 431 496 37,000  Level Atlanta Center
Sat 10:40:57 PM 32.1831 -82.4511 347° North 436 502 37,000 353 Level Atlanta Center
Sat 10:41:57 PM 32.2875 -82.4639 354° North 436 502 37,700 500 Climbing Atlanta Center
Sat 10:42:57 PM 32.4047 -82.4767 355° North 430 495 38,000 150 Climbing Atlanta Center
Sat 10:43:57 PM 32.5236 -82.4869 356° North 430 495 38,000  Level Atlanta Center
Sat 10:44:57 PM 32.6408 -82.5019 354° North 424 488 38,000  Level Atlanta Center
Sat 10:45:58 PM 32.7703 -82.5169 354° North 429 494 38,000  Level Atlanta Center
Sat 10:46:57 PM 32.8875 -82.5275 356° North 424 488 38,000  Level Atlanta Center
Sat 10:47:57 PM 33.0022 -82.5378 356° North 418 481 38,000  Level Atlanta Center
Sat 10:48:57 PM 33.1194 -82.5506 355° North 418 481 38,000  Level Atlanta Center
Sat 10:49:57 PM 33.2322 -82.5611 356° North 413 475 38,000  Level Atlanta Center
Sat 10:50:57 PM 33.3389 -82.5717 355° North 413 475 38,000  Level Atlanta Center
Sat 10:51:57 PM 33.4581 -82.5847 355° North 419 482 38,000  Level Atlanta Center
Sat 10:52:57 PM 33.5708 -82.5978 354° North 414 476 38,000  Level Atlanta Center
Sat 10:53:58 PM 33.6836 -82.6108 354° North 414 476 38,000  Level Atlanta Center
Sat 10:54:57 PM 33.7964 -82.6214 356° North 414 476 38,000  Level Atlanta Center
Sat 10:55:57 PM 33.9156 -82.6344 355° North 409 471 38,000  Level Atlanta Center
Sat 10:56:57 PM 34.0283 -82.6478 354° North 409 471 38,000  Level Atlanta Center
Sat 10:57:57 PM 34.1456 -82.6608 355° North 409 471 38,000  Level Atlanta Center
Sat 10:58:57 PM 34.2625 -82.6714 356° North 409 471 38,000  Level Atlanta Center
Sat 10:59:57 PM 34.3753 -82.6847 354° North 409 471 38,000  Level Atlanta Center
Sat 11:00:58 PM 34.4881 -82.6981 354° North 409 471 38,000  Level Atlanta Center
Sat 11:01:57 PM 34.6072 -82.7114 355° North 410 472 38,000  Level Atlanta Center
Sat 11:02:57 PM 34.7283 -82.7244 355° North 410 472 38,000  Level Atlanta Center
Sat 11:03:57 PM 34.8392 -82.7356 355° North 405 466 38,000  Level Atlanta Center
Sat 11:04:57 PM 34.9519 -82.7514 353° North 405 466 38,000  Level Atlanta Center
Sat 11:05:57 PM 35.0669 -82.7597 357° North 405 466 38,000  Level Atlanta Center
Sat 11:06:57 PM 35.1797 -82.7708 355° North 405 466 38,000  Level Atlanta Center
Sat 11:07:57 PM 35.2925 -82.7894 352° North 405 466 38,000  Level Atlanta Center
Sat 11:08:57 PM 35.4075 -82.8056 353° North 405 466 38,000  Level Atlanta Center
Sat 11:09:57 PM 35.5203 -82.8139 357° North 410 472 38,000  Level Atlanta Center
Sat 11:10:57 PM 35.6331 -82.8275 354° North 410 472 38,000  Level Atlanta Center
Sat 11:11:57 PM 35.7478 -82.8386 356° North 410 472 38,000  Level Atlanta Center
Sat 11:12:57 PM 35.8606 -82.8525 354° North 410 472 38,000  Level Atlanta Center
Sat 11:13:57 PM 35.9756 -82.8661 355° North 405 466 38,000  Level Atlanta Center
Sat 11:15:47 PM 36.1853 -82.8881 355° North 416 479 38,000  Level Indianapolis Center
Sat 11:16:47 PM 36.3022 -82.9014 355° North 417 480 38,000 248 Level Indianapolis Center
Sat 11:17:48 PM 36.4200 -82.9144 355° North 419 482 38,500 787 Climbing Indianapolis Center
Sat 11:18:49 PM 36.5364 -82.9283 355° North 419 482 39,600 744 Climbing Indianapolis Center
Sat 11:19:49 PM 36.6536 -82.9419 355° North 420 483 40,000 198 Climbing Indianapolis Center
Sat 11:20:50 PM 36.7703 -82.9564 354° North 420 483 40,000  Level Indianapolis Center
Sat 11:21:51 PM 36.8742 -82.9683 355° North 419 482 40,000  Level Indianapolis Center
Sat 11:22:51 PM 37.0131 -82.9839 355° North 419 482 40,000  Level Indianapolis Center
Sat 11:23:52 PM 37.1306 -82.9997 354° North 422 486 40,000  Level Indianapolis Center
Sat 11:24:52 PM 37.2447 -83.0117 355° North 417 480 40,000  Level Indianapolis Center
Sat 11:25:53 PM 37.3606 -83.0258 354° North 414 476 40,000  Level Indianapolis Center
Sat 11:26:54 PM 37.4758 -83.0397 355° North 414 476 40,000  Level Indianapolis Center
Sat 11:27:54 PM 37.5914 -83.0531 355° North 414 476 40,000  Level Indianapolis Center
Sat 11:28:55 PM 37.7075 -83.0667 355° North 414 476 40,000  Level Indianapolis Center
Sat 11:29:55 PM 37.8244 -83.0808 355° North 416 479 40,000  Level Indianapolis Center
Sat 11:30:56 PM 37.9403 -83.0944 355° North 417 480 40,000  Level Indianapolis Center
Sat 11:31:56 PM 38.0569 -83.1081 355° North 417 480 40,000  Level Indianapolis Center
Sat 11:32:57 PM 38.1733 -83.1217 355° North 417 480 40,000  Level Indianapolis Center
Sat 11:33:57 PM 38.2897 -83.1372 354° North 417 480 40,000  Level Indianapolis Center
Sat 11:34:58 PM 38.4064 -83.1511 355° North 418 481 40,000  Level Indianapolis Center
Sat 11:35:58 PM 38.5231 -83.1661 354° North 418 481 40,000  Level Indianapolis Center
Sat 11:36:59 PM 38.6408 -83.1792 355° North 419 482 40,000  Level Indianapolis Center
Sat 11:37:59 PM 38.7489 -83.1931 354° North 422 486 40,000  Level Indianapolis Center
Sat 11:38:59 PM 38.8658 -83.2081 354° North 422 486 40,000  Level Indianapolis Center
Sat 11:40:00 PM 38.9844 -83.2233 354° North 426 490 40,000  Level Indianapolis Center
Sat 11:41:00 PM 39.1008 -83.2369 355° North 426 490 40,000  Level Indianapolis Center
Sat 11:42:01 PM 39.2175 -83.2519 354° North 425 489 40,000  Level Indianapolis Center
Sat 11:43:01 PM 39.3333 -83.2661 355° North 424 488 40,000  Level Indianapolis Center
Sat 11:44:01 PM 39.4703 -83.2828 355° North 418 481 40,000  Level Indianapolis Center
Sat 11:45:02 PM 39.5844 -83.2975 354° North 417 480 40,000  Level Indianapolis Center
Sat 11:46:02 PM 39.6969 -83.3142 353° North 415 478 40,000  Level Indianapolis Center
Sat 11:47:02 PM 39.8042 -83.3558 343° North 413 475 40,000  Level Indianapolis Center
Sat 11:48:03 PM 39.9161 -83.3981 344° North 414 476 40,000 -99 Level Indianapolis Center
Sat 11:49:03 PM 40.0197 -83.4389 343° North 413 475 39,800 -595 Descending Indianapolis Center
Sat 11:50:04 PM 40.1286 -83.4825 343° North 413 475 38,800 -992 Descending Indianapolis Center
Sat 11:51:04 PM 40.2425 -83.5008 353° North 415 478 37,800 -950 Descending Indianapolis Center
Sat 11:52:04 PM 40.3606 -83.5100 357° North 420 483 36,900 -893 Descending Indianapolis Center
Sat 11:53:05 PM 40.4794 -83.5203 356° North 426 490 36,000 -942 Descending Indianapolis Center
Sat 11:54:05 PM 40.5997 -83.5303 356° North 428 493 35,000 -1,000 Descending Indianapolis Center
Sat 11:55:05 PM 40.7211 -83.5414 356° North 434 499 34,000 -942 Descending Indianapolis Center
Sat 11:56:06 PM 40.8417 -83.5522 356° North 434 499 33,100 -893 Descending Indianapolis Center
Sat 11:57:06 PM 40.9625 -83.5639 356° North 434 499 32,200 -1,000 Descending Indianapolis Center
Sat 11:58:06 PM 41.1028 -83.5767 356° North 438 504 31,100 -1,041 Descending Indianapolis Center
Sat 11:59:07 PM 41.2281 -83.5889 356° North 443 510 30,100 -992 Descending Indianapolis Center
Sun 12:00:07 AM 41.3547 -83.6003 356° North 447 514 29,100 -1,200 Descending Indianapolis Center
Sun 12:01:07 AM 41.4842 -83.6122 356° North 454 522 27,700 -1,934 Descending Indianapolis Center
Sun 12:02:08 AM 41.6083 -83.6250 356° North 450 518 25,200 -2,529 Descending Indianapolis Center
Sun 12:03:08 AM 41.7275 -83.6369 356° North 432 497 22,600 -2,336 Descending Indianapolis Center
Sun 12:04:19 AM 41.8453 -83.6486 356° North 415 478 20,100 -2,227 Descending Cleveland Center
Sun 12:05:20 AM 41.9564 -83.6586 356° North 406 467 17,700 -2,380 Descending Cleveland Center
Sun 12:06:20 AM 42.0636 -83.6689 356° North 390 449 15,300 -1,835 Descending Cleveland Center
Sun 12:07:21 AM 42.1669 -83.6797 356° North 375 432 14,000 -1,587 Descending Cleveland Center
Sun 12:08:21 AM 42.2694 -83.6903 356° North 364 419 12,100 -1,000 Descending Cleveland Center
Sun 12:09:21 AM 42.3672 -83.6997 356° North 347 399 12,000 -248 Descending Cleveland Center
Sun 12:10:22 AM 42.4544 -83.7086 356° North 318 366 11,600 -1,140 Descending Cleveland Center
Sun 12:11:22 AM 42.5414 -83.7172 356° North 312 359 9,700 -1,850 Descending Cleveland Center
Sun 12:12:22 AM 42.6247 -83.7242 356° North 304 350 7,900 -1,983 Descending Cleveland Center
Sun 12:13:23 AM 42.7097 -83.7333 355° North 290 334 5,700 -1,983 Descending Cleveland Center
Sun 12:14:23 AM 42.7889 -83.7397 357° North 270 311 3,900 -1,400 Descending Cleveland Center
Sun 12:15:23 AM 42.8483 -83.7411 359° North 222 255 2,900 -1,041 Descending Cleveland Center
Sun 12:16:24 AM 42.9022 -83.7419 359° North 190 219 1,800 -942 Descending Cleveland Center
Sun 12:17:24 AM 42.9456 -83.7428 359° North 163 188 1,000 -545 Descending Cleveland Center
Sun 12:18:25 AM 42.9889 -83.7425 360° North 160 184 700 -295 Descending Cleveland Center

Login

Don't have an account? Register now (free) for customized features, flight alerts, and more!